< Typhoon 201311 2013 Season Typhoon 201313 >
Typhoon 201312 (TRAMI)
General InformationTrack Information on Google MapsDetailed Wind InformationForecast History on Google MapsAccess Analytics MapList of All Images || NewsDisaster Info.WeblogTrackbackTyphoon FrontTwiphoonTyphoon Now!Typhoon ImaginationDisaster Info. XMLResourceGoogle EarthGE AnimationAtom FeedGeoJSON
Detalied Best Track (Time Zone = UTC)
Year Month Day Hour Lat. Long. Pressure (hPa) Wind (kt) Class Image Chart
2013 8 16 12 22.5 123.4 1002 0 2 Image Chart
2013 8 16 18 22.0 124.0 1000 0 2 Image Chart
2013 8 17 00 21.2 124.9 1000 0 2 Image Chart
2013 8 17 06 20.7 125.7 998 0 2 Image Chart
2013 8 17 12 20.5 126.5 1000 0 2 Image Chart
2013 8 17 18 20.4 126.9 996 0 2 Image Chart
2013 8 18 00 20.3 127.0 994 35 3 Image Chart
2013 8 18 06 20.2 127.2 994 35 3 Image Chart
2013 8 18 12 19.7 127.4 994 35 3 Image Chart
2013 8 18 18 19.2 127.6 992 40 3 Image Chart
2013 8 19 00 19.2 127.7 992 40 3 Image Chart
2013 8 19 06 19.7 128.1 992 40 3 Image Chart
2013 8 19 12 20.5 128.6 990 45 3 Image Chart
2013 8 19 18 21.1 128.7 985 50 4 Image Chart
2013 8 20 00 22.3 128.5 985 50 4 Image Chart
2013 8 20 06 22.6 127.8 980 55 4 Image Chart
2013 8 20 12 22.9 126.8 980 55 4 Image Chart
2013 8 20 15 23.6 126.7 980 55 4 Image Chart
2013 8 20 18 24.5 126.2 970 60 4 Image Chart
2013 8 20 21 24.9 125.3 965 60 4 Image Chart
2013 8 21 00 25.2 124.3 965 60 4 Image Chart
2013 8 21 03 25.3 123.6 965 60 4 Image Chart
2013 8 21 06 25.5 122.8 965 60 4 Image Chart
2013 8 21 12 25.9 121.0 965 60 4 Image Chart
2013 8 21 18 25.7 119.6 965 60 4 Image Chart
2013 8 22 00 26.0 118.4 980 50 4 Image Chart
2013 8 22 06 26.8 117.1 985 40 3 Image Chart
2013 8 22 12 27.5 116.0 990 35 3 Image Chart
2013 8 22 18 27.7 114.7 990 0 2 Image Chart
2013 8 23 00 27.8 113.5 992 0 2 Image Chart
2013 8 23 06 27.8 112.7 994 0 2 Image Chart
2013 8 23 12 27.1 111.7 996 0 2 Image Chart
2013 8 23 18 26.0 110.5 998 0 2 Image Chart
2013 8 24 00 25.3 108.5 998 0 2 Image Chart
2013 8 24 06 24.3 107.3 998 0 2 Image Chart
Japan Meteorological Agency Best Track Data | Correction Date : 2013-09-24
< Typhoon 201311 2013 Season Typhoon 201313 >

Help